Time;durP1;ratioP1;P1;durP2;ratioP2;P2;SDS_P1;SDS_P2;PMS_P1;PMS_P2;Temp;Humidity;BMP_temperature;BMP_pressure;BME280_temperature;BME280_humidity;BME280_pressure;Samples;Min_cycle;Max_cycle;Signal;HPM_P1;HPM_P2
2023/06/03 00:00:15;;;;;;;8.32;2.67;;;17.10;71.90;;;;;;5072864;28;20050;-81
2023/06/03 00:02:41;;;;;;;7.43;2.80;;;17.10;72.20;;;;;;5074378;28;20028;-81
2023/06/03 00:05:07;;;;;;;8.38;2.60;;;17.00;72.20;;;;;;5076835;28;20024;-79
2023/06/03 00:07:33;;;;;;;7.82;2.65;;;17.00;72.50;;;;;;5076258;28;20082;-82
2023/06/03 00:09:59;;;;;;;6.50;2.50;;;17.00;72.50;;;;;;5069097;28;20037;-82
2023/06/03 00:12:25;;;;;;;7.72;2.80;;;16.90;72.70;;;;;;5069505;28;20444;-79
2023/06/03 00:14:50;;;;;;;7.18;2.70;;;16.90;72.90;;;;;;5073366;28;20060;-80
2023/06/03 00:17:16;;;;;;;6.82;2.65;;;16.90;73.00;;;;;;5075228;28;20082;-80
2023/06/03 00:19:42;;;;;;;7.10;2.63;;;16.90;72.80;;;;;;5075448;28;20465;-81
2023/06/03 00:22:08;;;;;;;6.07;2.85;;;16.90;73.00;;;;;;5075839;28;20028;-80
2023/06/03 00:24:34;;;;;;;13.82;2.60;;;16.90;73.30;;;;;;5074524;28;20573;-84
2023/06/03 00:27:00;;;;;;;6.70;2.65;;;16.80;73.20;;;;;;5076166;28;20484;-79
2023/06/03 00:29:26;;;;;;;4.07;2.25;;;16.80;73.50;;;;;;5075786;28;20024;-81
2023/06/03 00:31:52;;;;;;;6.65;2.42;;;16.80;73.80;;;;;;5076635;28;20485;-81
2023/06/03 00:34:18;;;;;;;4.32;2.38;;;16.70;73.70;;;;;;5075775;28;20024;-81
2023/06/03 00:36:44;;;;;;;9.80;2.40;;;16.70;74.00;;;;;;5075051;28;20070;-81
2023/06/03 00:39:10;;;;;;;8.20;2.47;;;16.60;74.20;;;;;;5076652;28;20024;-81
2023/06/03 00:41:36;;;;;;;7.70;2.28;;;16.60;74.30;;;;;;5074982;28;20017;-82
2023/06/03 00:44:02;;;;;;;7.00;2.97;;;16.50;74.40;;;;;;5076340;28;20037;-81
2023/06/03 00:46:28;;;;;;;8.30;2.90;;;16.50;74.70;;;;;;5076466;28;20025;-80
2023/06/03 00:48:54;;;;;;;5.53;2.30;;;16.50;74.80;;;;;;5074722;28;20021;-81
2023/06/03 00:51:21;;;;;;;5.75;2.40;;;16.50;74.80;;;;;;5077239;28;20086;-80
2023/06/03 00:53:47;;;;;;;8.23;2.50;;;16.60;75.10;;;;;;5075078;28;20052;-81
2023/06/03 00:56:16;;;;;;;5.95;2.40;;;16.50;74.70;;;;;;5076283;28;20071;-81
2023/06/03 00:58:41;;;;;;;6.70;3.03;;;16.40;75.10;;;;;;5068231;28;20035;-80
2023/06/03 01:01:07;;;;;;;7.10;2.60;;;16.40;75.40;;;;;;5066406;28;20089;-81
2023/06/03 01:03:33;;;;;;;7.20;2.70;;;16.40;75.30;;;;;;5059270;28;20068;-80
2023/06/03 01:06:21;;;;;;;4.97;2.35;;;16.40;75.20;;;;;;5055974;28;20120;-80
2023/06/03 01:09:01;;;;;;;5.63;2.10;;;16.40;75.20;;;;;;5054759;28;20036;-81
2023/06/03 01:11:27;;;;;;;6.43;2.80;;;16.30;75.50;;;;;;5055747;28;20075;-80
2023/06/03 01:14:08;;;;;;;6.03;2.28;;;16.30;75.80;;;;;;5054734;28;20029;-80
2023/06/03 01:16:36;;;;;;;7.57;2.45;;;16.20;75.70;;;;;;5055388;28;20074;-79
2023/06/03 01:19:14;;;;;;;7.50;2.30;;;16.20;76.00;;;;;;5055859;28;20033;-79
2023/06/03 01:21:44;;;;;;;5.28;2.53;;;16.20;76.10;;;;;;5054573;28;20581;-79
2023/06/03 01:24:18;;;;;;;4.90;2.15;;;16.20;76.30;;;;;;5055094;28;20033;-78
2023/06/03 01:26:44;;;;;;;10.52;2.45;;;16.10;76.70;;;;;;5054177;28;20123;-79
2023/06/03 01:29:10;;;;;;;5.75;2.03;;;16.10;76.70;;;;;;5055051;28;20029;-78
2023/06/03 01:31:36;;;;;;;7.70;2.78;;;16.00;76.90;;;;;;5055011;28;20029;-78
2023/06/03 01:34:01;;;;;;;6.57;2.42;;;16.00;77.20;;;;;;5055086;28;20427;-78
2023/06/03 01:36:27;;;;;;;7.68;2.42;;;16.00;77.50;;;;;;5054669;28;20071;-78
2023/06/03 01:38:54;;;;;;;6.32;2.22;;;16.00;77.20;;;;;;5054489;28;20025;-79
2023/06/03 01:41:20;;;;;;;7.25;2.58;;;16.00;77.30;;;;;;5054643;28;20033;-79
2023/06/03 01:43:45;;;;;;;10.60;2.50;;;15.90;77.70;;;;;;5055522;28;20534;-78
2023/06/03 01:46:11;;;;;;;6.38;2.28;;;15.80;78.10;;;;;;5054491;28;20501;-79
2023/06/03 01:48:37;;;;;;;3.28;2.30;;;15.80;78.00;;;;;;5054406;28;20029;-79
2023/06/03 01:51:03;;;;;;;7.07;1.98;;;15.70;78.20;;;;;;5054187;28;20025;-79
2023/06/03 01:53:28;;;;;;;3.38;1.92;;;15.70;78.30;;;;;;5054931;28;20426;-78
2023/06/03 01:55:54;;;;;;;12.15;2.25;;;15.70;78.70;;;;;;5053814;28;20124;-77
2023/06/03 01:58:19;;;;;;;4.45;1.83;;;15.60;79.50;;;;;;5054431;28;20025;-77
2023/06/03 02:00:45;;;;;;;9.27;2.17;;;15.60;78.70;;;;;;5053776;28;20119;-78
2023/06/03 02:03:11;;;;;;;5.30;1.92;;;15.60;78.80;;;;;;5055191;28;20021;-79
2023/06/03 02:05:36;;;;;;;7.95;2.40;;;15.60;79.30;;;;;;5055172;28;20025;-79
2023/06/03 02:08:02;;;;;;;7.85;2.28;;;15.60;79.60;;;;;;5053915;28;20029;-80
2023/06/03 02:10:27;;;;;;;4.57;2.15;;;15.50;79.80;;;;;;5054438;28;20036;-80
2023/06/03 02:12:53;;;;;;;7.13;2.30;;;15.50;80.00;;;;;;5054109;28;20025;-79
2023/06/03 02:15:19;;;;;;;7.45;1.85;;;15.50;79.70;;;;;;5055471;28;20037;-80
2023/06/03 02:17:44;;;;;;;6.70;2.25;;;15.50;80.10;;;;;;5054865;28;20029;-80
2023/06/03 02:20:10;;;;;;;5.03;2.20;;;15.50;80.00;;;;;;5055222;28;20072;-80
2023/06/03 02:22:37;;;;;;;3.65;2.15;;;15.50;80.10;;;;;;5054247;28;20035;-79
2023/06/03 02:25:03;;;;;;;7.25;2.58;;;15.40;80.50;;;;;;5052611;28;20036;-79
2023/06/03 02:27:29;;;;;;;7.25;2.20;;;15.40;80.80;;;;;;5055249;28;20112;-80
2023/06/03 02:29:55;;;;;;;5.35;2.50;;;15.30;81.00;;;;;;5053622;28;20451;-80
2023/06/03 02:32:20;;;;;;;7.28;3.88;;;15.30;81.30;;;;;;5054010;28;20056;-80
2023/06/03 02:34:48;;;;;;;8.35;2.55;;;15.20;81.60;;;;;;5054494;28;20033;-81
2023/06/03 02:37:15;;;;;;;8.27;2.30;;;15.20;82.00;;;;;;5055131;28;20025;-81
2023/06/03 02:39:41;;;;;;;6.18;2.00;;;15.10;82.40;;;;;;5053777;28;20120;-80
2023/06/03 02:42:08;;;;;;;5.63;2.15;;;15.20;82.20;;;;;;5054833;28;20021;-81
2023/06/03 02:44:33;;;;;;;4.85;2.40;;;15.10;82.60;;;;;;5053737;28;20029;-81
2023/06/03 02:46:59;;;;;;;4.85;1.85;;;15.10;82.80;;;;;;5053433;28;20403;-81
2023/06/03 02:49:24;;;;;;;7.63;2.00;;;15.10;82.80;;;;;;5053717;28;20166;-81
2023/06/03 02:51:50;;;;;;;5.82;2.55;;;15.10;83.10;;;;;;5054442;28;20036;-81
2023/06/03 02:54:15;;;;;;;5.78;1.95;;;15.10;83.30;;;;;;5054602;28;20079;-80
2023/06/03 02:56:41;;;;;;;5.15;1.90;;;15.00;83.50;;;;;;5053752;28;20028;-80
2023/06/03 02:59:07;;;;;;;6.00;1.80;;;15.10;83.60;;;;;;5053930;28;20119;-79
2023/06/03 03:01:32;;;;;;;6.78;2.00;;;15.10;83.80;;;;;;5053300;28;20048;-79
2023/06/03 03:03:59;;;;;;;8.50;1.98;;;15.10;83.80;;;;;;5053946;28;20044;-80
2023/06/03 03:06:25;;;;;;;7.00;1.95;;;15.00;83.90;;;;;;5053232;28;20029;-79
2023/06/03 03:08:52;;;;;;;7.13;2.53;;;15.00;84.00;;;;;;5052675;28;20087;-80
2023/06/03 03:11:17;;;;;;;5.50;2.55;;;15.00;84.10;;;;;;5054297;28;20109;-79
2023/06/03 03:13:44;;;;;;;6.05;1.83;;;15.00;84.50;;;;;;5053693;28;20057;-80
2023/06/03 03:16:11;;;;;;;6.57;2.53;;;14.90;84.50;;;;;;5053551;28;20037;-81
2023/06/03 03:18:37;;;;;;;8.02;2.13;;;14.90;84.80;;;;;;5053467;28;20056;-81
2023/06/03 03:21:04;;;;;;;6.65;1.90;;;14.90;85.20;;;;;;5052699;28;20161;-80
2023/06/03 03:23:30;;;;;;;7.30;2.22;;;14.90;85.00;;;;;;5054386;28;20074;-81
2023/06/03 03:25:57;;;;;;;11.82;2.65;;;14.90;85.30;;;;;;5052461;28;20032;-81
2023/06/03 03:28:23;;;;;;;7.43;2.30;;;14.90;85.40;;;;;;5054089;28;20106;-80
2023/06/03 03:30:49;;;;;;;6.90;2.00;;;14.80;85.60;;;;;;5052636;28;20028;-81
2023/06/03 03:33:17;;;;;;;7.50;2.30;;;14.80;85.90;;;;;;5053255;28;20120;-81
2023/06/03 03:35:43;;;;;;;11.27;2.83;;;14.80;86.10;;;;;;5054445;28;20115;-79
2023/06/03 03:38:09;;;;;;;6.20;2.33;;;14.80;86.40;;;;;;5052616;28;20032;-80
2023/06/03 03:40:38;;;;;;;4.18;1.80;;;14.70;86.70;;;;;;5053003;28;20056;-80
2023/06/03 03:43:08;;;;;;;5.20;2.22;;;14.70;87.20;;;;;;5053769;28;20028;-80
2023/06/03 03:45:36;;;;;;;6.20;2.22;;;14.70;87.10;;;;;;5053452;28;20029;-79
2023/06/03 03:48:06;;;;;;;5.93;2.00;;;14.60;87.30;;;;;;5053927;28;20032;-81
2023/06/03 03:50:41;;;;;;;10.20;2.50;;;14.70;87.30;;;;;;5053019;28;20029;-81
2023/06/03 03:53:09;;;;;;;5.07;2.10;;;14.60;87.30;;;;;;5052417;28;20540;-81
2023/06/03 03:55:46;;;;;;;7.63;1.92;;;14.60;87.50;;;;;;5053972;28;20105;-80
2023/06/03 03:58:35;;;;;;;4.75;2.13;;;14.60;87.90;;;;;;5054017;28;20070;-80
2023/06/03 04:01:18;;;;;;;5.78;2.42;;;14.60;88.40;;;;;;5051502;28;20047;-80
2023/06/03 04:03:46;;;;;;;6.90;2.15;;;14.60;88.40;;;;;;5052964;28;20029;-81
2023/06/03 04:06:14;;;;;;;7.20;2.10;;;14.60;88.60;;;;;;5054082;28;20047;-80
2023/06/03 04:08:47;;;;;;;5.22;2.30;;;14.60;88.60;;;;;;5053951;28;20462;-80
2023/06/03 04:11:26;;;;;;;6.57;2.40;;;14.50;88.60;;;;;;5054056;28;20017;-80
2023/06/03 04:13:51;;;;;;;5.40;2.55;;;14.50;89.00;;;;;;5052576;28;20108;-81
2023/06/03 04:16:46;;;;;;;6.85;2.28;;;14.50;89.00;;;;;;5054451;28;20528;-80
2023/06/03 04:19:16;;;;;;;5.70;1.73;;;14.50;89.40;;;;;;5046960;28;20072;-81
2023/06/03 04:21:41;;;;;;;8.82;2.22;;;14.50;90.00;;;;;;5054266;28;20045;-81
2023/06/03 04:24:08;;;;;;;6.65;2.58;;;14.40;89.50;;;;;;5053167;28;20355;-82
2023/06/03 04:26:34;;;;;;;7.65;2.25;;;14.50;89.90;;;;;;5053032;28;20025;-82
2023/06/03 04:29:00;;;;;;;6.70;2.58;;;14.50;89.60;;;;;;5052174;28;20092;-82
2023/06/03 04:31:25;;;;;;;5.65;2.20;;;14.50;89.60;;;;;;5052728;28;20021;-82
2023/06/03 04:33:51;;;;;;;6.32;2.50;;;14.50;89.80;;;;;;5052974;28;20035;-82
2023/06/03 04:36:17;;;;;;;5.65;2.28;;;14.50;90.00;;;;;;5053723;28;20033;-82
2023/06/03 04:38:43;;;;;;;3.88;2.10;;;14.50;90.10;;;;;;5052555;28;20531;-81
2023/06/03 04:41:12;;;;;;;7.97;2.45;;;14.50;90.30;;;;;;5051853;28;20279;-82
2023/06/03 04:43:40;;;;;;;7.68;2.50;;;14.50;90.40;;;;;;5053600;28;20068;-81
2023/06/03 04:46:06;;;;;;;6.10;2.70;;;14.50;90.40;;;;;;5053338;28;20060;-79
2023/06/03 04:48:33;;;;;;;8.10;2.30;;;14.50;90.50;;;;;;5053891;28;20482;-80
2023/06/03 04:51:01;;;;;;;7.05;2.50;;;14.50;90.50;;;;;;5055488;28;20071;-80
2023/06/03 04:53:28;;;;;;;7.15;2.95;;;14.50;90.60;;;;;;5060920;28;20036;-80
2023/06/03 04:55:54;;;;;;;4.53;2.35;;;14.50;90.70;;;;;;5064069;28;20032;-81
2023/06/03 04:58:20;;;;;;;6.88;2.63;;;14.50;90.60;;;;;;5055868;28;20029;-80
2023/06/03 05:00:48;;;;;;;8.52;2.47;;;14.60;90.50;;;;;;5056059;28;20382;-81
2023/06/03 05:03:16;;;;;;;6.82;2.17;;;14.60;90.70;;;;;;5055241;28;20017;-81
2023/06/03 05:05:42;;;;;;;6.70;2.30;;;14.60;90.60;;;;;;5056152;28;20447;-82
2023/06/03 05:08:09;;;;;;;6.38;2.22;;;14.60;90.80;;;;;;5055093;28;20124;-81
2023/06/03 05:10:35;;;;;;;7.80;2.40;;;14.70;90.90;;;;;;5055674;28;20025;-80
2023/06/03 05:13:02;;;;;;;6.90;2.20;;;14.70;90.80;;;;;;5055923;28;20060;-81
2023/06/03 05:15:28;;;;;;;8.95;2.30;;;14.80;90.80;;;;;;5055258;28;20086;-81
2023/06/03 05:17:53;;;;;;;6.90;2.40;;;14.80;90.80;;;;;;5055608;28;20454;-80
2023/06/03 05:20:19;;;;;;;9.13;2.22;;;14.80;90.80;;;;;;5056107;28;20128;-79
2023/06/03 05:22:44;;;;;;;8.45;2.25;;;14.90;90.80;;;;;;5056293;28;20026;-79
2023/06/03 05:25:10;;;;;;;6.82;2.38;;;14.80;90.90;;;;;;5055800;28;20029;-79
2023/06/03 05:27:36;;;;;;;6.97;2.30;;;14.90;91.20;;;;;;5056317;28;20028;-79
2023/06/03 05:30:01;;;;;;;5.30;2.13;;;15.00;90.80;;;;;;5054934;28;20171;-81
2023/06/03 05:32:27;;;;;;;5.63;2.10;;;15.00;90.80;;;;;;5054644;28;20036;-81
2023/06/03 05:34:52;;;;;;;7.53;2.55;;;15.10;90.90;;;;;;5054868;28;20033;-83
2023/06/03 05:37:18;;;;;;;11.07;2.33;;;15.10;90.70;;;;;;5054984;28;20112;-81
2023/06/03 05:39:44;;;;;;;7.22;2.38;;;15.20;90.60;;;;;;5055819;28;20039;-81
2023/06/03 05:42:09;;;;;;;4.20;2.10;;;15.20;90.70;;;;;;5054642;28;20113;-81
2023/06/03 05:44:35;;;;;;;3.85;2.00;;;15.20;90.50;;;;;;5054922;28;20355;-81
2023/06/03 05:47:00;;;;;;;6.45;2.30;;;15.30;90.50;;;;;;5054685;28;20359;-81
2023/06/03 05:49:27;;;;;;;5.35;2.50;;;15.30;90.70;;;;;;5054984;28;20067;-81
2023/06/03 05:51:52;;;;;;;7.15;2.33;;;15.30;90.70;;;;;;5054461;28;20379;-81
2023/06/03 05:54:18;;;;;;;6.00;2.20;;;15.30;90.70;;;;;;5055237;28;20119;-81
2023/06/03 05:56:43;;;;;;;6.80;2.60;;;15.40;90.60;;;;;;5054470;28;20531;-81
2023/06/03 05:59:09;;;;;;;6.82;2.38;;;15.40;90.60;;;;;;5052999;28;20021;-79
2023/06/03 06:01:35;;;;;;;7.55;2.10;;;15.50;90.60;;;;;;5053903;28;20023;-79
2023/06/03 06:04:00;;;;;;;5.47;2.15;;;15.50;90.50;;;;;;5054799;28;20108;-79
2023/06/03 06:06:26;;;;;;;7.28;2.60;;;15.60;90.40;;;;;;5054180;28;20101;-79
2023/06/03 06:08:52;;;;;;;9.55;2.10;;;15.60;90.10;;;;;;5055200;28;20025;-79
2023/06/03 06:11:18;;;;;;;6.38;2.38;;;15.60;90.20;;;;;;5053600;28;20467;-80
2023/06/03 06:13:43;;;;;;;6.32;2.10;;;15.70;90.10;;;;;;5055243;28;20463;-80
2023/06/03 06:16:09;;;;;;;7.05;2.40;;;15.70;90.20;;;;;;5053296;28;20036;-79
2023/06/03 06:18:35;;;;;;;5.20;2.15;;;15.80;90.30;;;;;;5053632;28;20059;-80
2023/06/03 06:21:01;;;;;;;4.60;2.20;;;15.80;90.30;;;;;;5053172;28;20045;-81
2023/06/03 06:23:27;;;;;;;12.57;2.45;;;15.80;90.10;;;;;;5054098;28;20040;-81
2023/06/03 06:25:54;;;;;;;10.85;2.55;;;15.90;89.90;;;;;;5053912;28;20416;-80
2023/06/03 06:28:22;;;;;;;6.75;2.80;;;15.90;89.00;;;;;;5053572;28;20037;-79
2023/06/03 06:30:53;;;;;;;6.38;2.20;;;15.90;88.80;;;;;;5053927;28;20036;-80
2023/06/03 06:33:18;;;;;;;6.13;2.60;;;15.90;88.70;;;;;;5053256;28;20025;-80
2023/06/03 06:35:45;;;;;;;9.25;2.42;;;15.90;88.40;;;;;;5053811;28;20128;-80
2023/06/03 06:38:11;;;;;;;7.85;2.65;;;16.00;89.00;;;;;;5053474;28;20041;-80
2023/06/03 06:40:40;;;;;;;8.13;2.80;;;16.00;88.70;;;;;;5054982;28;20100;-80
2023/06/03 06:43:12;;;;;;;7.47;2.40;;;16.00;88.90;;;;;;5053427;28;20025;-80
2023/06/03 06:45:37;;;;;;;12.25;2.47;;;16.10;88.70;;;;;;5054800;28;20084;-79
2023/06/03 06:48:08;;;;;;;9.35;2.75;;;16.10;89.00;;;;;;5053109;28;20051;-80
2023/06/03 06:50:48;;;;;;;4.97;2.30;;;16.20;88.70;;;;;;5053104;28;20025;-80
2023/06/03 06:53:16;;;;;;;4.32;1.98;;;16.20;88.80;;;;;;5054065;28;20037;-80
2023/06/03 06:55:53;;;;;;;7.57;2.70;;;16.30;88.70;;;;;;5053312;28;20029;-79
2023/06/03 06:58:19;;;;;;;6.10;2.38;;;16.40;88.20;;;;;;5052710;28;20071;-79
2023/06/03 07:00:46;;;;;;;10.38;2.55;;;16.30;88.50;;;;;;5053146;28;20032;-79
2023/06/03 07:03:16;;;;;;;8.48;2.45;;;16.40;87.30;;;;;;5053248;28;20140;-80
2023/06/03 07:05:43;;;;;;;8.73;2.67;;;16.40;87.30;;;;;;5054564;28;20086;-81
2023/06/03 07:08:09;;;;;;;11.23;3.13;;;16.50;86.90;;;;;;5058141;28;20044;-80
2023/06/03 07:10:36;;;;;;;9.93;2.55;;;16.50;86.90;;;;;;5060858;28;20024;-79
2023/06/03 07:13:02;;;;;;;5.13;2.72;;;16.60;87.20;;;;;;5076560;28;20037;-81
2023/06/03 07:15:28;;;;;;;6.75;2.40;;;16.60;88.60;;;;;;5071956;28;20043;-79
2023/06/03 07:17:56;;;;;;;4.38;2.08;;;16.70;86.90;;;;;;5054558;28;20544;-79
2023/06/03 07:20:26;;;;;;;7.20;2.72;;;16.70;87.00;;;;;;5054018;28;20056;-80
2023/06/03 07:22:52;;;;;;;5.13;2.40;;;16.80;86.90;;;;;;5054623;28;20033;-79
2023/06/03 07:25:43;;;;;;;7.03;2.35;;;16.80;87.10;;;;;;5055863;28;20436;-79
2023/06/03 07:28:11;;;;;;;9.05;2.25;;;16.80;85.90;;;;;;5074485;28;20039;-80
2023/06/03 07:30:38;;;;;;;8.48;2.47;;;16.90;86.20;;;;;;5072167;28;20119;-80
2023/06/03 07:33:06;;;;;;;6.57;2.63;;;16.90;86.00;;;;;;5074448;28;20020;-81
2023/06/03 07:35:34;;;;;;;6.22;2.28;;;17.00;86.90;;;;;;5074845;28;20090;-81
2023/06/03 07:38:00;;;;;;;6.30;2.15;;;17.00;86.00;;;;;;5072869;28;20078;-82
2023/06/03 07:40:41;;;;;;;6.93;2.70;;;17.00;86.30;;;;;;5073568;28;20021;-80
2023/06/03 07:43:08;;;;;;;7.63;2.50;;;17.00;86.40;;;;;;5074289;28;20032;-80
2023/06/03 07:45:34;;;;;;;9.75;2.88;;;17.10;85.20;;;;;;5074883;28;20067;-79
2023/06/03 07:48:02;;;;;;;7.05;2.60;;;17.10;85.20;;;;;;5074283;28;20136;-84
2023/06/03 07:50:29;;;;;;;8.88;3.00;;;17.20;85.70;;;;;;5073881;28;20028;-80
2023/06/03 07:53:02;;;;;;;8.60;2.53;;;17.20;86.00;;;;;;5073872;28;20531;-81
2023/06/03 07:55:43;;;;;;;5.68;2.72;;;17.30;85.50;;;;;;5072931;28;20532;-81
2023/06/03 07:58:14;;;;;;;8.52;2.63;;;17.30;85.10;;;;;;5072130;28;20029;-81
2023/06/03 08:00:43;;;;;;;8.05;2.83;;;17.30;85.40;;;;;;5072915;28;20672;-80
2023/06/03 08:03:12;;;;;;;7.50;3.00;;;17.40;86.00;;;;;;5072259;28;20031;-81
2023/06/03 08:05:38;;;;;;;7.05;2.95;;;17.40;85.40;;;;;;5072698;28;20124;-81
2023/06/03 08:08:05;;;;;;;7.43;3.17;;;17.50;84.70;;;;;;5072332;28;20056;-82
2023/06/03 08:10:32;;;;;;;5.97;2.40;;;17.50;85.00;;;;;;5073477;28;20052;-81
2023/06/03 08:12:58;;;;;;;11.93;2.78;;;17.50;84.90;;;;;;5073895;28;20052;-81
2023/06/03 08:15:32;;;;;;;7.07;2.90;;;17.60;84.20;;;;;;5072803;28;20040;-79
2023/06/03 08:17:59;;;;;;;6.75;2.50;;;17.60;84.20;;;;;;5072742;28;20029;-79
2023/06/03 08:20:28;;;;;;;7.82;2.90;;;17.70;84.40;;;;;;5071626;28;20056;-78
2023/06/03 08:22:57;;;;;;;7.95;3.08;;;17.80;84.90;;;;;;5074185;28;20103;-79
2023/06/03 08:25:23;;;;;;;5.97;2.75;;;17.80;84.40;;;;;;5075843;28;20515;-80
2023/06/03 08:27:49;;;;;;;5.53;2.25;;;17.90;84.00;;;;;;5076732;28;20060;-79
2023/06/03 08:30:15;;;;;;;8.32;2.60;;;17.90;83.60;;;;;;5076116;28;20442;-79
2023/06/03 08:32:42;;;;;;;7.63;2.90;;;17.90;83.40;;;;;;5077023;28;20469;-79
2023/06/03 08:35:09;;;;;;;4.63;2.47;;;18.00;84.50;;;;;;5076899;28;20054;-79
2023/06/03 08:37:35;;;;;;;8.05;2.90;;;18.00;84.50;;;;;;5076229;28;20029;-78
2023/06/03 08:40:05;;;;;;;9.80;3.30;;;18.00;83.10;;;;;;5076263;28;20078;-81
2023/06/03 08:42:42;;;;;;;5.93;2.88;;;18.10;83.40;;;;;;5075877;28;20024;-81
2023/06/03 08:45:08;;;;;;;6.93;2.47;;;18.10;83.30;;;;;;5075254;28;20074;-81
2023/06/03 08:48:06;;;;;;;9.40;2.75;;;18.10;83.60;;;;;;5076811;28;20474;-78
2023/06/03 08:50:35;;;;;;;6.47;2.95;;;18.20;83.10;;;;;;5076735;28;20056;-80
2023/06/03 08:53:08;;;;;;;8.57;2.90;;;18.30;83.70;;;;;;5075510;28;20123;-81
2023/06/03 08:55:36;;;;;;;11.18;2.90;;;18.30;83.70;;;;;;5075610;28;20028;-81
2023/06/03 08:58:12;;;;;;;11.77;3.17;;;18.40;83.20;;;;;;5075753;28;20024;-82
2023/06/03 09:00:39;;;;;;;9.10;3.00;;;18.40;84.20;;;;;;5076877;28;20029;-79
2023/06/03 09:03:06;;;;;;;7.25;2.50;;;18.50;82.90;;;;;;5075287;28;20466;-86
2023/06/03 09:05:35;;;;;;;6.78;2.83;;;18.50;83.50;;;;;;5075674;28;20035;-79
2023/06/03 09:08:02;;;;;;;8.23;2.83;;;18.50;82.70;;;;;;5075462;28;20030;-78
2023/06/03 09:10:30;;;;;;;8.82;2.55;;;18.60;83.20;;;;;;5075999;28;20031;-79
2023/06/03 09:12:59;;;;;;;6.28;2.75;;;18.70;83.50;;;;;;5075308;28;20021;-79
2023/06/03 09:15:24;;;;;;;6.78;2.35;;;18.70;82.70;;;;;;5075900;28;20347;-80
2023/06/03 09:17:50;;;;;;;6.97;2.80;;;18.70;82.10;;;;;;5072246;28;20064;-78
2023/06/03 09:20:16;;;;;;;8.75;2.88;;;18.80;82.70;;;;;;5065631;28;20087;-80
2023/06/03 09:22:44;;;;;;;6.80;3.00;;;18.80;81.70;;;;;;5076102;28;20029;-78
2023/06/03 09:25:10;;;;;;;7.07;2.92;;;18.90;82.10;;;;;;5064690;28;20115;-79
2023/06/03 09:27:36;;;;;;;7.30;2.83;;;18.90;82.00;;;;;;5068668;28;20056;-78
2023/06/03 09:30:03;;;;;;;10.20;3.15;;;18.90;82.50;;;;;;5067624;28;20035;-82
2023/06/03 09:32:30;;;;;;;9.10;3.20;;;19.00;81.90;;;;;;5080166;28;20032;-82
2023/06/03 09:34:57;;;;;;;5.95;2.70;;;19.00;81.50;;;;;;5080048;28;20036;-82
2023/06/03 09:37:22;;;;;;;5.47;2.70;;;19.00;81.50;;;;;;5079178;28;20020;-83
2023/06/03 09:39:50;;;;;;;5.30;2.90;;;19.10;82.20;;;;;;5077558;28;20516;-84
2023/06/03 09:42:16;;;;;;;6.68;2.80;;;19.10;82.50;;;;;;5070076;28;20028;-84
2023/06/03 09:44:46;;;;;;;7.38;2.63;;;19.30;81.60;;;;;;5068101;28;20036;-80
2023/06/03 09:47:12;;;;;;;7.82;3.00;;;19.20;81.40;;;;;;5074232;28;20069;-80
2023/06/03 09:49:38;;;;;;;8.23;3.50;;;19.30;81.70;;;;;;5062493;28;20016;-78
2023/06/03 09:52:11;;;;;;;11.52;3.53;;;19.40;81.80;;;;;;5061582;28;20029;-83
2023/06/03 09:54:37;;;;;;;6.68;2.92;;;19.40;82.60;;;;;;5071955;28;20029;-80
2023/06/03 09:57:10;;;;;;;5.70;2.75;;;19.50;81.70;;;;;;5070543;28;20021;-78
2023/06/03 09:59:36;;;;;;;8.10;2.58;;;19.50;81.80;;;;;;5064754;28;20072;-79
2023/06/03 10:02:07;;;;;;;8.02;3.20;;;19.60;83.00;;;;;;5080086;28;20032;-79
2023/06/03 10:04:46;;;;;;;10.25;2.85;;;19.70;82.00;;;;;;5061509;28;20021;-80
2023/06/03 10:07:17;;;;;;;7.75;2.85;;;19.80;82.10;;;;;;5062410;28;20032;-81
2023/06/03 10:09:47;;;;;;;6.85;3.15;;;19.90;80.70;;;;;;5054282;28;20025;-80
2023/06/03 10:12:28;;;;;;;8.60;2.75;;;19.90;80.20;;;;;;5057127;28;20060;-81
2023/06/03 10:14:55;;;;;;;9.18;2.80;;;19.90;80.50;;;;;;5104189;28;20082;-81
2023/06/03 10:17:21;;;;;;;6.18;2.90;;;20.00;81.40;;;;;;5065854;28;20039;-82
2023/06/03 10:19:47;;;;;;;6.22;2.45;;;20.00;80.80;;;;;;5079318;28;20021;-82
2023/06/03 10:22:18;;;;;;;8.48;2.90;;;20.10;81.30;;;;;;5066036;28;20033;-80
2023/06/03 10:24:49;;;;;;;7.90;2.75;;;20.20;81.90;;;;;;5076409;28;20032;-81
2023/06/03 10:27:16;;;;;;;6.23;2.87;;;20.20;81.00;;;;;;5074594;28;20033;-82
2023/06/03 10:29:43;;;;;;;5.75;2.90;;;20.30;80.60;;;;;;5074698;28;20261;-83
2023/06/03 10:32:14;;;;;;;5.75;2.90;;;20.30;80.20;;;;;;5069677;28;20043;-87
2023/06/03 10:34:41;;;;;;;6.13;2.92;;;20.40;79.50;;;;;;5075932;28;20032;-83
2023/06/03 10:37:09;;;;;;;8.63;2.88;;;20.40;79.30;;;;;;5067186;28;20031;-82
2023/06/03 10:39:36;;;;;;;8.13;2.70;;;20.50;79.80;;;;;;5067356;28;20052;-82
2023/06/03 10:42:03;;;;;;;7.80;3.15;;;20.60;81.10;;;;;;5064221;28;20032;-83
2023/06/03 10:44:30;;;;;;;6.10;2.80;;;20.80;80.60;;;;;;5066289;28;20191;-82
2023/06/03 10:47:05;;;;;;;8.30;3.30;;;20.90;79.20;;;;;;5063277;28;20029;-82
2023/06/03 10:49:47;;;;;;;8.00;3.78;;;20.90;79.40;;;;;;5065809;28;20048;-83
2023/06/03 10:52:51;;;;;;;7.57;3.08;;;20.90;79.30;;;;;;5061879;28;20060;-83
2023/06/03 10:55:43;;;;;;;5.75;3.05;;;21.00;79.60;;;;;;5061829;28;20434;-83
2023/06/03 10:58:23;;;;;;;4.40;2.75;;;21.10;79.20;;;;;;5068911;28;20029;-82
2023/06/03 11:00:53;;;;;;;6.80;3.42;;;21.20;78.90;;;;;;5066201;28;20387;-83
2023/06/03 11:03:21;;;;;;;6.47;3.28;;;21.20;77.80;;;;;;5061775;28;20055;-86
2023/06/03 11:05:47;;;;;;;8.80;3.40;;;21.20;78.00;;;;;;5058440;28;20029;-84
2023/06/03 11:08:13;;;;;;;7.38;3.30;;;21.30;77.90;;;;;;5069031;28;20553;-84
2023/06/03 11:10:40;;;;;;;6.53;3.30;;;21.30;78.20;;;;;;5069107;28;20119;-84
2023/06/03 11:13:08;;;;;;;11.02;3.38;;;21.40;78.20;;;;;;5070388;28;20017;-83
2023/06/03 11:16:02;;;;;;;5.07;3.15;;;21.50;77.90;;;;;;5068428;28;20024;-82
2023/06/03 11:18:29;;;;;;;6.05;3.25;;;21.60;78.80;;;;;;5061809;28;20368;-83
2023/06/03 11:20:55;;;;;;;5.88;2.85;;;21.60;78.20;;;;;;5055321;28;20083;-84
2023/06/03 11:23:40;;;;;;;8.80;3.75;;;21.70;78.50;;;;;;5072779;28;20037;-81
2023/06/03 11:26:34;;;;;;;6.38;3.30;;;21.80;79.30;;;;;;5061374;28;20036;-81
2023/06/03 11:29:05;;;;;;;8.65;3.53;;;21.90;78.10;;;;;;5055890;28;20052;-80
2023/06/03 11:31:33;;;;;;;6.93;3.22;;;22.00;78.50;;;;;;5065298;28;20322;-81
2023/06/03 11:34:25;;;;;;;5.10;3.20;;;22.10;77.00;;;;;;5065241;28;20029;-81
2023/06/03 11:36:52;;;;;;;6.70;3.05;;;22.10;76.70;;;;;;5062757;28;20548;-81
2023/06/03 11:39:18;;;;;;;9.25;2.90;;;22.20;78.40;;;;;;5056175;28;20025;-81
2023/06/03 11:42:08;;;;;;;7.10;3.40;;;22.30;76.90;;;;;;5067051;28;20021;-81
2023/06/03 11:44:35;;;;;;;8.70;3.40;;;22.40;77.60;;;;;;5055064;28;20377;-82
2023/06/03 11:47:01;;;;;;;8.07;3.25;;;22.40;76.10;;;;;;5054446;28;20045;-80
2023/06/03 11:49:34;;;;;;;10.02;2.90;;;22.40;76.70;;;;;;5061100;28;20036;-81
2023/06/03 11:52:00;;;;;;;5.95;3.08;;;22.50;75.50;;;;;;5062117;28;20119;-80
2023/06/03 11:54:27;;;;;;;6.82;3.40;;;22.50;75.40;;;;;;5056458;28;20025;-80
2023/06/03 11:56:54;;;;;;;5.60;3.47;;;22.60;75.40;;;;;;5060721;28;20021;-81
2023/06/03 11:59:25;;;;;;;5.53;2.97;;;22.70;76.80;;;;;;5067727;28;20025;-80
2023/06/03 12:02:03;;;;;;;7.20;3.42;;;22.90;76.20;;;;;;5081279;28;20028;-80
2023/06/03 12:04:29;;;;;;;9.10;3.35;;;23.00;75.60;;;;;;5066560;28;20031;-80
2023/06/03 12:06:55;;;;;;;8.80;3.25;;;23.10;75.90;;;;;;5067694;28;20032;-80
2023/06/03 12:09:27;;;;;;;6.93;2.92;;;23.10;75.50;;;;;;5065383;28;20020;-80
2023/06/03 12:11:59;;;;;;;7.47;3.17;;;23.20;75.40;;;;;;5064398;28;20324;-81
2023/06/03 12:14:32;;;;;;;6.15;3.10;;;23.30;75.20;;;;;;5065459;28;20381;-80
2023/06/03 12:17:13;;;;;;;7.70;3.35;;;23.50;75.40;;;;;;5067155;28;20028;-81
2023/06/03 12:19:48;;;;;;;6.85;3.10;;;23.60;74.60;;;;;;5092785;28;20024;-81
2023/06/03 12:22:20;;;;;;;6.47;3.40;;;23.60;71.50;;;;;;5068511;28;20063;-81
2023/06/03 12:24:45;;;;;;;6.18;3.17;;;23.70;71.60;;;;;;5074019;28;20055;-83
2023/06/03 12:27:17;;;;;;;8.02;3.50;;;23.70;71.90;;;;;;5072202;28;20054;-82
2023/06/03 12:29:51;;;;;;;7.82;3.42;;;23.90;72.40;;;;;;5064959;28;20402;-83
2023/06/03 12:32:17;;;;;;;9.57;3.60;;;24.00;71.30;;;;;;5068706;28;20029;-83
2023/06/03 12:34:44;;;;;;;4.60;3.30;;;24.00;72.50;;;;;;5066046;28;20108;-83
2023/06/03 12:37:12;;;;;;;7.88;3.35;;;24.10;73.20;;;;;;5057205;28;20079;-82
2023/06/03 12:39:48;;;;;;;5.57;2.90;;;24.20;73.30;;;;;;5056905;28;20024;-83
2023/06/03 12:42:16;;;;;;;5.40;3.00;;;24.20;71.20;;;;;;5055678;28;20036;-84
2023/06/03 12:44:49;;;;;;;10.38;3.50;;;24.20;70.80;;;;;;5055342;28;20032;-82
2023/06/03 12:47:17;;;;;;;5.53;3.20;;;24.20;71.10;;;;;;5056457;28;20036;-83
2023/06/03 12:49:44;;;;;;;5.88;3.10;;;24.30;69.90;;;;;;5055944;28;20056;-81
2023/06/03 12:52:19;;;;;;;5.65;3.22;;;24.40;71.20;;;;;;5055904;28;20537;-82